Burlington International Airport Burlington US
ICAO: KBTV
IATA: BTV
Category: Medium
Scheduled Services: Yes

Elevation: 335 ft
TransAlt. 18000 ft.

Airport Communications:
APP/DEP:121.1
ATIS:123.8
CTAF:118.3
GND:121.9
ANG OPS:125.125
ARNG OPS:41.2
RDO:122.2
TWR:118.3
UNICOM:122.95

KBTV Zoom In..

If you have problems with the map follow the link
https://www.worldairports.se/pages/airport.php?
ICAO=KBTV

Runways:

(A) RW 01 length 3611 ft width 75 ft
---- / hdg 6

(B) RW 15 length 8320 ft width 150 ft
ILS 110.30 / hdg 146

(C) RW 19 length 3611 ft width 75 ft
---- / hdg 186

(D) RW 33 length 8320 ft width 150 ft
ILS 110.30 / hdg 326

Location; KBTV
Day. 14 / Time. 10.54 Zulu
* Altimeter: 30.21
* Temperature: -07° c. -19.4°f.
* Wind from: 340° Speed 10 kn.
Dewpoint: -12° c.
Visibility: 10 Statute Miles.
Clouds: Broken 3600 ft.

KBTV 141054Z 34010KT 10SM BKN036 M07/M12 A3021 RMK AO2 SLP234 T10721122


Wind From 340°
Speed 10 kn.

 
 
jpsmedia.com for Web Design worldairports.se 2018   terms of use